< Typhoon 202011 2020 Season Typhoon 202013 >
Typhoon 202012 (DOLPHIN)
General InformationDetailed Track InformationTrack Information on Google MapsForecast History on Google MapsAccess Analytics MapList of All Images || NewsDisaster Info.WeblogTrackbackTyphoon FrontTwiphoonTyphoon Now!Typhoon ImaginationJMA Disaster Info. XMLResourceGoogle EarthGE AnimationAtom FeedGeoJSON
Detalied Best Track Wind (Time Zone = UTC)
Year Month Day Hour Lat. Long. Wind (kt) Gust (kt) Direc. of Major Storm Axis Radius of Major Storm Axis (nm) Radius of Minor Storm Axis (nm) Direc. of Major Gale Axis Radius of Major Gale Axis (nm) Radius of Minor Gale Axis (nm) Image
2020 9 19 12 21.6 135.0 0 0 - - - - - - Image
2020 9 19 18 22.3 134.5 0 0 - - - - - - Image
2020 9 20 00 22.9 134.2 0 0 - - - - - - Image
2020 9 20 06 23.6 134.0 0 0 - - - - - - Image
2020 9 20 12 24.0 134.3 0 0 - - - - - - Image
2020 9 20 18 24.2 134.7 0 0 - - - - - - Image
2020 9 21 00 24.9 134.8 40 0 - - - SE 130 70 Image
2020 9 21 06 25.3 135.0 40 0 - - - SE 130 70 Image
2020 9 21 12 25.7 135.0 40 0 - - - N 210 100 Image
2020 9 21 18 26.1 135.2 45 0 - - - N 210 100 Image
2020 9 22 00 26.9 135.3 50 0 - - - NE 240 100 Image
2020 9 22 06 28.1 135.8 60 0 symmetric 45 45 NE 240 100 Image
2020 9 22 12 29.3 136.3 60 0 symmetric 45 45 SE 210 100 Image
2020 9 22 18 30.1 137.0 60 0 symmetric 45 45 SE 210 100 Image
2020 9 23 00 31.2 137.9 60 0 symmetric 45 45 SE 210 100 Image
2020 9 23 06 32.1 139.3 55 0 symmetric 40 40 SE 210 150 Image
2020 9 23 09 32.7 140.1 50 0 - - - SE 210 150 Image
2020 9 23 12 32.9 140.8 50 0 - - - symmetric 210 210 Image
2020 9 23 15 32.9 141.1 50 0 - - - symmetric 210 210 Image
2020 9 23 18 32.9 141.3 50 0 - - - symmetric 210 210 Image
2020 9 23 21 32.9 141.5 50 0 - - - symmetric 210 210 Image
2020 9 24 00 32.9 141.8 45 0 - - - W 270 210 Image
2020 9 24 03 32.7 142.0 45 0 - - - W 270 210 Image
2020 9 24 06 32.7 142.4 0 0 - - - - - - Image
2020 9 24 12 33.2 142.5 0 0 - - - - - - Image
2020 9 24 18 33.7 142.5 0 0 - - - - - - Image
2020 9 25 00 34.0 141.7 0 0 - - - - - - Image
2020 9 25 06 35.5 142.1 0 0 - - - - - - Image
2020 9 25 12 37.2 142.8 0 0 - - - - - - Image
2020 9 25 18 38.9 144.0 0 0 - - - - - - Image
2020 9 26 00 40.2 145.4 0 0 - - - - - - Image
2020 9 26 06 40.9 146.0 0 0 - - - - - - Image
2020 9 26 12 41.6 146.8 0 0 - - - - - - Image
2020 9 26 18 42.0 147.1 0 0 - - - - - - Image
2020 9 27 00 42.7 147.4 0 0 - - - - - - Image
2020 9 27 06 43.5 147.9 0 0 - - - - - - Image
2020 9 27 12 44.6 148.4 0 0 - - - - - - Image
2020 9 27 18 45.5 149.7 0 0 - - - - - - Image
2020 9 28 00 47.3 151.7 0 0 - - - - - - Image
2020 9 28 06 48.8 152.9 0 0 - - - - - - Image
2020 9 28 12 49.5 154.1 0 0 - - - - - - Image
2020 9 28 18 50.1 157.9 0 0 - - - - - - Image
2020 9 29 00 50.7 161.9 0 0 - - - - - - Image
2020 9 29 06 50.6 165.8 0 0 - - - - - - Image
2020 9 29 12 50.2 167.5 0 0 - - - - - - Image
2020 9 29 18 49.9 168.9 0 0 - - - - - - Image
Japan Meteorological Agency Best Track Data | Correction Date : 2020-12-23
< Typhoon 202011 2020 Season Typhoon 202013 >

Help